Time;durP1;ratioP1;P1;durP2;ratioP2;P2;SDS_P1;SDS_P2;PMS_P1;PMS_P2;Temp;Humidity;BMP_temperature;BMP_pressure;BME280_temperature;BME280_humidity;BME280_pressure;Samples;Min_cycle;Max_cycle;Signal;HPM_P1;HPM_P2
2023/09/16 00:00:06;;;;;;;13.73;11.50;;;18.10;85.20;;;;;;5012185;28;20036;-58
2023/09/16 00:02:32;;;;;;;12.40;11.10;;;18.10;85.10;;;;;;5012632;28;20584;-59
2023/09/16 00:04:57;;;;;;;11.95;10.82;;;18.10;85.20;;;;;;5012135;28;20109;-59
2023/09/16 00:07:23;;;;;;;11.57;10.40;;;18.10;85.10;;;;;;5012252;28;20474;-59
2023/09/16 00:09:50;;;;;;;11.88;10.30;;;18.10;84.90;;;;;;5012144;28;20018;-59
2023/09/16 00:12:15;;;;;;;12.95;11.68;;;18.00;84.80;;;;;;5012188;28;20064;-59
2023/09/16 00:14:41;;;;;;;12.30;11.00;;;18.00;85.00;;;;;;5012377;28;20049;-59
2023/09/16 00:17:08;;;;;;;11.80;10.60;;;18.00;85.10;;;;;;5012029;28;20084;-58
2023/09/16 00:19:34;;;;;;;12.52;10.85;;;17.90;85.30;;;;;;5012385;28;20034;-59
2023/09/16 00:22:00;;;;;;;11.20;10.00;;;17.90;85.10;;;;;;5012217;28;20022;-59
2023/09/16 00:24:25;;;;;;;12.65;10.95;;;17.90;85.40;;;;;;5012225;28;20022;-58
2023/09/16 00:26:51;;;;;;;12.50;11.23;;;17.90;85.60;;;;;;5012001;28;20022;-58
2023/09/16 00:29:16;;;;;;;12.02;10.80;;;17.90;85.60;;;;;;5012039;28;20029;-59
2023/09/16 00:31:42;;;;;;;12.50;11.20;;;17.80;85.60;;;;;;5012058;28;20105;-59
2023/09/16 00:34:08;;;;;;;10.93;9.82;;;17.80;85.50;;;;;;5011824;28;20045;-58
2023/09/16 00:36:34;;;;;;;11.32;9.73;;;17.80;85.70;;;;;;5012041;28;20026;-58
2023/09/16 00:38:59;;;;;;;10.90;9.77;;;17.80;85.40;;;;;;5011686;28;20072;-59
2023/09/16 00:41:25;;;;;;;11.00;9.80;;;17.80;85.40;;;;;;5011841;28;20025;-60
2023/09/16 00:43:51;;;;;;;11.82;10.30;;;17.80;85.40;;;;;;5011937;28;20040;-59
2023/09/16 00:46:17;;;;;;;10.30;9.30;;;17.80;85.30;;;;;;5011868;28;20033;-58
2023/09/16 00:48:45;;;;;;;10.85;9.75;;;17.80;85.00;;;;;;5011731;28;20035;-59
2023/09/16 00:51:13;;;;;;;11.45;9.68;;;17.80;84.90;;;;;;5011851;28;20393;-60
2023/09/16 00:53:40;;;;;;;11.50;9.23;;;17.70;84.60;;;;;;5011880;28;20034;-59
2023/09/16 00:56:07;;;;;;;10.43;9.30;;;17.70;84.30;;;;;;5011429;28;20081;-59
2023/09/16 00:58:34;;;;;;;10.70;9.30;;;17.70;84.60;;;;;;5011970;28;20398;-58
2023/09/16 01:01:01;;;;;;;10.77;9.55;;;17.70;84.70;;;;;;5012266;28;20448;-59
2023/09/16 01:03:27;;;;;;;10.32;9.32;;;17.70;84.60;;;;;;5015733;28;20034;-58
2023/09/16 01:05:54;;;;;;;12.00;9.40;;;17.70;84.60;;;;;;5015700;28;20034;-59
2023/09/16 01:08:22;;;;;;;11.40;9.43;;;17.70;84.80;;;;;;5015630;28;20034;-59
2023/09/16 01:10:48;;;;;;;10.65;9.10;;;17.70;85.00;;;;;;5015902;28;20034;-58
2023/09/16 01:13:14;;;;;;;12.52;10.55;;;17.70;84.80;;;;;;5015210;28;20537;-59
2023/09/16 01:15:53;;;;;;;10.40;9.10;;;17.60;85.30;;;;;;5015523;28;20068;-60
2023/09/16 01:18:27;;;;;;;10.30;9.27;;;17.70;85.20;;;;;;5015530;28;20054;-59
2023/09/16 01:20:55;;;;;;;10.48;9.43;;;17.70;85.40;;;;;;5015396;28;20029;-59
2023/09/16 01:23:21;;;;;;;10.57;9.55;;;17.60;85.60;;;;;;5015576;28;20080;-58
2023/09/16 01:25:46;;;;;;;10.77;9.68;;;17.60;85.40;;;;;;5015411;28;20101;-58
2023/09/16 01:28:12;;;;;;;11.73;10.60;;;17.60;85.40;;;;;;5015411;28;20109;-59
2023/09/16 01:30:44;;;;;;;11.43;10.32;;;17.60;85.60;;;;;;5015136;28;20033;-58
2023/09/16 01:33:17;;;;;;;11.05;9.95;;;17.60;85.80;;;;;;5014990;28;20100;-59
2023/09/16 01:35:45;;;;;;;11.07;9.90;;;17.60;85.70;;;;;;5015141;28;20038;-59
2023/09/16 01:38:14;;;;;;;9.93;8.93;;;17.60;85.30;;;;;;5015088;28;20092;-59
2023/09/16 01:40:43;;;;;;;9.95;8.75;;;17.60;85.20;;;;;;5014877;28;20026;-59
2023/09/16 01:43:08;;;;;;;9.32;8.25;;;17.60;84.80;;;;;;5014812;28;20025;-59
2023/09/16 01:45:44;;;;;;;9.57;8.52;;;17.60;84.70;;;;;;5014707;28;20096;-58
2023/09/16 01:48:11;;;;;;;9.18;8.23;;;17.60;84.20;;;;;;5014967;28;20482;-59
2023/09/16 01:50:37;;;;;;;9.48;8.45;;;17.60;84.00;;;;;;5015006;28;20034;-59
2023/09/16 01:53:05;;;;;;;9.75;8.75;;;17.60;84.30;;;;;;5014709;28;20050;-58
2023/09/16 01:55:31;;;;;;;9.73;8.73;;;17.60;84.20;;;;;;5014572;28;20050;-59
2023/09/16 01:57:57;;;;;;;9.90;8.90;;;17.60;84.20;;;;;;5014703;28;20036;-58
2023/09/16 02:00:23;;;;;;;10.98;8.98;;;17.60;84.20;;;;;;5014768;28;20502;-58
2023/09/16 02:02:49;;;;;;;10.15;9.10;;;17.60;84.00;;;;;;5014369;28;20037;-59
2023/09/16 02:05:15;;;;;;;11.73;9.15;;;17.60;84.00;;;;;;5014480;28;20068;-59
2023/09/16 02:07:40;;;;;;;9.60;8.60;;;17.60;84.00;;;;;;5014238;28;20061;-58
2023/09/16 02:10:07;;;;;;;10.82;8.93;;;17.60;84.20;;;;;;5014915;28;20157;-59
2023/09/16 02:12:33;;;;;;;9.32;8.32;;;17.60;84.00;;;;;;5013905;28;20083;-58
2023/09/16 02:14:58;;;;;;;9.50;8.15;;;17.60;84.20;;;;;;5014467;28;20415;-59
2023/09/16 02:17:25;;;;;;;11.07;8.88;;;17.60;83.90;;;;;;5014250;28;20114;-58
2023/09/16 02:19:51;;;;;;;9.30;8.20;;;17.60;83.80;;;;;;5014369;28;20112;-58
2023/09/16 02:22:17;;;;;;;10.02;8.18;;;17.60;83.60;;;;;;5014093;28;20029;-58
2023/09/16 02:24:43;;;;;;;9.00;7.75;;;17.50;83.30;;;;;;5014051;28;20034;-58
2023/09/16 02:27:09;;;;;;;9.45;7.68;;;17.50;83.00;;;;;;5014409;28;20061;-58
2023/09/16 02:29:34;;;;;;;9.95;8.20;;;17.60;83.10;;;;;;4996482;28;20034;-59
2023/09/16 02:32:00;;;;;;;9.15;8.18;;;17.50;83.00;;;;;;5014345;28;20371;-58
2023/09/16 02:34:27;;;;;;;9.30;7.63;;;17.50;83.10;;;;;;5014310;28;20394;-59
2023/09/16 02:36:52;;;;;;;9.25;8.35;;;17.50;83.00;;;;;;5014148;28;20445;-59
2023/09/16 02:39:18;;;;;;;9.68;8.68;;;17.50;83.10;;;;;;5013795;28;20026;-59
2023/09/16 02:41:43;;;;;;;8.65;7.82;;;17.50;83.00;;;;;;5013791;28;20056;-59
2023/09/16 02:44:09;;;;;;;9.68;8.68;;;17.50;83.40;;;;;;5013714;28;20029;-59
2023/09/16 02:46:35;;;;;;;9.88;8.98;;;17.50;83.30;;;;;;5013956;28;20485;-59
2023/09/16 02:49:02;;;;;;;9.93;8.68;;;17.50;83.40;;;;;;5013942;28;20474;-59
2023/09/16 02:51:29;;;;;;;10.52;9.43;;;17.50;83.50;;;;;;5013894;28;20497;-58
2023/09/16 02:53:56;;;;;;;11.10;9.27;;;17.50;83.70;;;;;;5013390;28;20026;-59
2023/09/16 02:56:21;;;;;;;10.57;9.48;;;17.50;84.00;;;;;;5013230;28;20045;-59
2023/09/16 02:58:47;;;;;;;12.48;9.27;;;17.50;83.70;;;;;;5013503;28;20025;-58
2023/09/16 03:01:13;;;;;;;13.52;10.85;;;17.50;84.00;;;;;;5013476;28;20080;-59
2023/09/16 03:03:39;;;;;;;12.35;11.10;;;17.50;84.20;;;;;;5013446;28;20022;-58
2023/09/16 03:06:05;;;;;;;10.50;9.50;;;17.40;84.40;;;;;;5013467;28;20490;-59
2023/09/16 03:08:31;;;;;;;11.43;9.35;;;17.40;84.30;;;;;;5013352;28;20116;-59
2023/09/16 03:11:03;;;;;;;11.20;9.70;;;17.40;84.60;;;;;;5013284;28;20539;-59
2023/09/16 03:13:29;;;;;;;10.80;9.80;;;17.40;84.60;;;;;;5012994;28;20112;-59
2023/09/16 03:16:19;;;;;;;11.43;9.85;;;17.40;84.80;;;;;;5013072;28;20106;-59
2023/09/16 03:18:52;;;;;;;10.55;9.23;;;17.40;84.30;;;;;;5012947;28;20022;-59
2023/09/16 03:21:19;;;;;;;11.48;10.27;;;17.40;84.50;;;;;;5013109;28;20018;-58
2023/09/16 03:23:46;;;;;;;11.52;9.40;;;17.40;84.50;;;;;;5012469;28;20053;-58
2023/09/16 03:26:12;;;;;;;10.00;8.80;;;17.40;84.60;;;;;;5012844;28;20018;-59
2023/09/16 03:28:43;;;;;;;10.20;9.18;;;17.30;84.30;;;;;;5013110;28;20028;-59
2023/09/16 03:31:09;;;;;;;10.45;9.43;;;17.30;84.50;;;;;;5012948;28;20056;-58
2023/09/16 03:33:35;;;;;;;10.20;9.20;;;17.30;84.20;;;;;;5012820;28;20037;-59
2023/09/16 03:36:01;;;;;;;11.02;9.85;;;17.30;84.20;;;;;;5012651;28;20029;-59
2023/09/16 03:38:29;;;;;;;11.93;9.45;;;17.30;84.30;;;;;;5012715;28;20026;-59
2023/09/16 03:40:55;;;;;;;10.25;9.18;;;17.30;84.50;;;;;;5012858;28;20088;-59
2023/09/16 03:43:21;;;;;;;11.02;9.80;;;17.30;84.70;;;;;;5012713;28;20034;-58
2023/09/16 03:45:47;;;;;;;10.85;9.75;;;17.30;84.60;;;;;;5012578;28;20505;-58
2023/09/16 03:48:12;;;;;;;11.63;10.38;;;17.30;84.50;;;;;;5012452;28;20386;-59
2023/09/16 03:50:38;;;;;;;11.98;10.88;;;17.20;85.20;;;;;;5012575;28;20037;-59
2023/09/16 03:53:04;;;;;;;12.60;11.23;;;17.20;85.00;;;;;;5012346;28;20037;-59
2023/09/16 03:55:30;;;;;;;11.50;10.30;;;17.30;85.00;;;;;;5012593;28;20041;-59
2023/09/16 03:57:56;;;;;;;11.98;10.73;;;17.30;85.00;;;;;;5012435;28;20025;-59
2023/09/16 04:00:21;;;;;;;11.20;9.95;;;17.30;85.10;;;;;;5012473;28;20030;-59
2023/09/16 04:02:47;;;;;;;12.00;10.00;;;17.30;85.30;;;;;;5012570;28;20040;-59
2023/09/16 04:05:13;;;;;;;11.57;10.25;;;17.30;85.00;;;;;;5012602;28;20109;-59
2023/09/16 04:07:39;;;;;;;12.02;10.60;;;17.30;84.90;;;;;;5012562;28;20022;-59
2023/09/16 04:10:07;;;;;;;12.15;10.20;;;17.30;84.60;;;;;;5012257;28;20038;-59
2023/09/16 04:12:32;;;;;;;11.55;10.35;;;17.30;84.30;;;;;;5012549;28;20036;-58
2023/09/16 04:14:58;;;;;;;11.77;10.38;;;17.30;84.30;;;;;;5012404;28;20026;-59
2023/09/16 04:17:24;;;;;;;11.00;9.77;;;17.30;84.00;;;;;;5011729;28;20061;-59
2023/09/16 04:19:49;;;;;;;11.20;9.90;;;17.30;84.00;;;;;;5012172;28;20026;-58
2023/09/16 04:22:15;;;;;;;10.60;9.23;;;17.30;83.90;;;;;;5010414;28;20026;-59
2023/09/16 04:24:41;;;;;;;11.43;9.45;;;17.30;83.50;;;;;;5010297;28;20072;-59
2023/09/16 04:27:06;;;;;;;10.02;8.98;;;17.30;83.30;;;;;;5010306;28;20544;-58
2023/09/16 04:29:32;;;;;;;11.10;9.75;;;17.40;84.10;;;;;;5010568;28;20026;-59
2023/09/16 04:31:57;;;;;;;11.23;9.05;;;17.40;83.50;;;;;;5010539;28;20026;-58
2023/09/16 04:34:23;;;;;;;11.32;10.18;;;17.40;83.10;;;;;;5011285;28;20025;-59
2023/09/16 04:36:49;;;;;;;13.75;10.02;;;17.50;83.30;;;;;;5009971;28;20021;-58
2023/09/16 04:39:23;;;;;;;11.15;10.02;;;17.50;83.00;;;;;;5010524;28;20109;-59
2023/09/16 04:41:53;;;;;;;9.48;8.48;;;17.50;82.60;;;;;;5011548;28;20105;-59
2023/09/16 04:44:22;;;;;;;10.57;9.40;;;17.60;82.60;;;;;;5009983;28;20030;-59
2023/09/16 04:46:54;;;;;;;10.45;9.35;;;17.60;82.30;;;;;;5009707;28;20057;-59
2023/09/16 04:49:20;;;;;;;10.35;9.05;;;17.60;82.10;;;;;;5010133;28;20026;-59
2023/09/16 04:51:46;;;;;;;10.77;9.65;;;17.60;82.10;;;;;;5010004;28;20021;-59
2023/09/16 04:54:12;;;;;;;10.25;9.23;;;17.70;81.90;;;;;;5010091;28;20470;-59
2023/09/16 04:56:37;;;;;;;10.68;8.57;;;17.70;81.40;;;;;;5010587;28;20128;-58
2023/09/16 04:59:04;;;;;;;10.52;9.23;;;17.60;81.20;;;;;;5009947;28;20018;-59
2023/09/16 05:01:30;;;;;;;9.18;8.13;;;17.70;81.30;;;;;;5010066;28;20045;-59
2023/09/16 05:03:56;;;;;;;10.10;8.40;;;17.70;80.70;;;;;;5009906;28;20026;-59
2023/09/16 05:06:22;;;;;;;9.05;7.80;;;17.70;80.30;;;;;;5010192;28;20037;-58
2023/09/16 05:08:48;;;;;;;9.82;8.35;;;17.80;80.30;;;;;;5009853;28;20414;-57
2023/09/16 05:11:14;;;;;;;12.30;8.90;;;17.80;80.40;;;;;;5010453;28;20027;-59
2023/09/16 05:13:40;;;;;;;9.25;8.25;;;17.90;80.00;;;;;;5009601;28;20036;-59
2023/09/16 05:16:07;;;;;;;9.88;8.75;;;17.90;79.60;;;;;;5009888;28;20496;-59
2023/09/16 05:18:34;;;;;;;9.75;8.70;;;18.00;79.30;;;;;;5010824;28;20022;-59
2023/09/16 05:20:59;;;;;;;9.38;8.30;;;18.00;78.80;;;;;;5011397;28;20061;-59
2023/09/16 05:23:25;;;;;;;10.63;8.48;;;18.10;78.70;;;;;;5011672;28;20061;-59
2023/09/16 05:25:51;;;;;;;11.82;9.23;;;18.10;78.30;;;;;;5011571;28;20026;-59
2023/09/16 05:28:17;;;;;;;9.05;8.15;;;18.10;78.40;;;;;;5011477;28;20478;-59
2023/09/16 05:30:43;;;;;;;8.85;7.95;;;18.10;77.90;;;;;;5011439;28;20113;-59
2023/09/16 05:33:10;;;;;;;9.32;8.27;;;18.10;77.60;;;;;;5010156;28;20056;-59
2023/09/16 05:35:37;;;;;;;10.23;8.82;;;18.10;77.40;;;;;;5009630;28;20026;-58
2023/09/16 05:38:04;;;;;;;9.18;8.27;;;18.10;77.80;;;;;;5009717;28;20490;-59
2023/09/16 05:40:29;;;;;;;9.02;8.13;;;18.10;77.80;;;;;;5009339;28;20080;-59
2023/09/16 05:42:55;;;;;;;8.82;8.00;;;18.10;77.80;;;;;;5009312;28;20465;-58
2023/09/16 05:45:21;;;;;;;8.68;7.78;;;18.10;77.70;;;;;;5009466;28;20034;-59
2023/09/16 05:47:48;;;;;;;10.07;9.07;;;18.10;77.90;;;;;;5011183;28;20034;-59
2023/09/16 05:50:14;;;;;;;9.98;8.82;;;18.20;77.60;;;;;;5013121;28;20517;-59
2023/09/16 05:52:39;;;;;;;9.82;8.40;;;18.20;77.50;;;;;;5012907;28;20237;-58
2023/09/16 05:55:05;;;;;;;9.02;8.10;;;18.20;76.90;;;;;;5012821;28;20049;-59
2023/09/16 05:57:31;;;;;;;8.93;8.02;;;18.20;76.50;;;;;;5012735;28;20026;-58
2023/09/16 05:59:57;;;;;;;8.50;7.60;;;18.20;76.30;;;;;;5011682;28;20069;-58
2023/09/16 06:02:22;;;;;;;10.20;8.48;;;18.30;76.10;;;;;;5013054;28;20154;-58
2023/09/16 06:04:49;;;;;;;9.73;7.80;;;18.30;75.80;;;;;;5013773;28;20057;-58
2023/09/16 06:07:18;;;;;;;9.80;7.72;;;18.40;75.60;;;;;;5013783;28;20026;-59
2023/09/16 06:09:44;;;;;;;9.20;8.20;;;18.40;75.80;;;;;;5013977;28;20030;-58
2023/09/16 06:12:10;;;;;;;9.23;8.20;;;18.50;75.40;;;;;;5013574;28;20030;-58
2023/09/16 06:14:36;;;;;;;8.68;7.88;;;18.50;75.00;;;;;;5013664;28;20105;-59
2023/09/16 06:17:02;;;;;;;9.52;8.55;;;18.60;75.30;;;;;;5013522;28;20414;-59
2023/09/16 06:19:28;;;;;;;8.40;7.38;;;18.60;75.20;;;;;;5013737;28;20124;-59
2023/09/16 06:21:57;;;;;;;9.48;8.05;;;18.70;75.20;;;;;;5013947;28;20041;-59
2023/09/16 06:24:24;;;;;;;9.88;8.13;;;18.70;74.40;;;;;;5013697;28;20033;-58
2023/09/16 06:26:50;;;;;;;8.25;7.45;;;18.80;74.40;;;;;;5013296;28;20034;-59
2023/09/16 06:29:16;;;;;;;9.70;7.82;;;18.80;74.60;;;;;;5013651;28;20044;-58
2023/09/16 06:31:41;;;;;;;8.85;7.00;;;18.90;74.30;;;;;;5013146;28;20389;-58
2023/09/16 06:34:07;;;;;;;9.50;6.97;;;19.00;74.20;;;;;;5013013;28;20061;-59
2023/09/16 06:36:33;;;;;;;9.00;7.63;;;19.10;73.60;;;;;;5013635;28;20026;-58
2023/09/16 06:38:59;;;;;;;7.60;6.80;;;19.10;72.90;;;;;;5013295;28;20018;-58
2023/09/16 06:41:25;;;;;;;8.43;6.65;;;19.20;72.80;;;;;;5013471;28;20048;-58
2023/09/16 06:43:51;;;;;;;10.18;7.00;;;19.30;71.80;;;;;;5012973;28;20030;-59
2023/09/16 06:46:20;;;;;;;7.25;6.50;;;19.30;71.30;;;;;;5013017;28;20037;-59
2023/09/16 06:48:45;;;;;;;7.68;6.38;;;19.40;70.80;;;;;;5012870;28;20470;-59
2023/09/16 06:51:11;;;;;;;6.90;6.20;;;19.40;70.20;;;;;;5012604;28;20034;-59
2023/09/16 06:53:37;;;;;;;10.00;7.13;;;19.50;70.40;;;;;;5012762;28;20060;-58
2023/09/16 06:56:03;;;;;;;8.32;6.70;;;19.50;70.30;;;;;;5012627;28;20053;-58
2023/09/16 06:58:29;;;;;;;9.05;6.70;;;19.60;70.50;;;;;;5012214;28;20141;-58
2023/09/16 07:00:55;;;;;;;7.70;6.70;;;19.70;69.70;;;;;;5011686;28;20026;-58
2023/09/16 07:03:22;;;;;;;7.68;6.50;;;19.70;69.50;;;;;;5012772;28;20026;-59
2023/09/16 07:05:48;;;;;;;7.13;6.10;;;19.70;69.20;;;;;;5013272;28;20022;-59
2023/09/16 07:08:18;;;;;;;8.52;6.65;;;19.80;69.00;;;;;;5013040;28;20029;-58
2023/09/16 07:10:43;;;;;;;7.90;7.10;;;19.80;68.90;;;;;;5012886;28;20482;-59
2023/09/16 07:13:09;;;;;;;7.03;6.10;;;19.90;68.90;;;;;;5012222;28;20033;-60
2023/09/16 07:15:35;;;;;;;7.88;6.90;;;19.90;68.80;;;;;;5012797;28;20026;-58
2023/09/16 07:18:01;;;;;;;7.78;6.72;;;19.90;68.40;;;;;;5012645;28;20367;-58
2023/09/16 07:20:27;;;;;;;7.05;6.07;;;19.90;68.10;;;;;;5012417;28;20045;-58
2023/09/16 07:22:55;;;;;;;6.50;5.80;;;20.00;68.10;;;;;;5012688;28;20041;-59
2023/09/16 07:25:21;;;;;;;7.07;6.00;;;20.00;67.70;;;;;;5012554;28;20034;-59
2023/09/16 07:27:47;;;;;;;6.75;6.07;;;20.00;67.40;;;;;;5012228;28;20053;-58
2023/09/16 07:30:14;;;;;;;7.35;6.65;;;20.10;67.20;;;;;;5012434;28;20026;-59
2023/09/16 07:32:41;;;;;;;6.97;6.25;;;20.10;67.10;;;;;;5012422;28;20053;-58
2023/09/16 07:35:07;;;;;;;6.97;6.25;;;20.10;66.90;;;;;;5012103;28;20030;-57
2023/09/16 07:37:33;;;;;;;8.18;7.00;;;20.20;67.40;;;;;;5012274;28;20037;-58
2023/09/16 07:39:59;;;;;;;7.85;6.53;;;20.20;67.60;;;;;;5011980;28;20022;-58
2023/09/16 07:42:24;;;;;;;7.38;6.07;;;20.30;67.40;;;;;;5011661;28;20021;-58
2023/09/16 07:44:50;;;;;;;7.28;6.57;;;20.30;67.00;;;;;;5011863;28;20030;-58
2023/09/16 07:47:16;;;;;;;8.07;6.25;;;20.30;66.80;;;;;;5012151;28;20122;-59
2023/09/16 07:49:41;;;;;;;7.63;6.45;;;20.40;67.00;;;;;;5011904;28;20442;-57
2023/09/16 07:52:07;;;;;;;10.35;6.82;;;20.40;66.80;;;;;;5011725;28;20446;-60
2023/09/16 07:54:33;;;;;;;7.05;5.88;;;20.40;66.70;;;;;;5011941;28;20056;-58
2023/09/16 07:56:58;;;;;;;6.85;6.15;;;20.40;66.70;;;;;;5011445;28;20052;-58
2023/09/16 07:59:26;;;;;;;6.30;5.70;;;20.40;66.60;;;;;;5011796;28;20125;-58
2023/09/16 08:01:52;;;;;;;7.45;6.05;;;20.50;66.30;;;;;;5011953;28;20033;-59
2023/09/16 08:04:18;;;;;;;6.60;5.80;;;20.50;66.50;;;;;;5011459;28;20097;-58
2023/09/16 08:06:43;;;;;;;6.63;5.93;;;20.50;65.80;;;;;;5011455;28;20044;-58
2023/09/16 08:09:09;;;;;;;7.80;6.18;;;20.50;66.00;;;;;;5011610;28;20022;-58
2023/09/16 08:11:35;;;;;;;6.50;5.72;;;20.50;65.80;;;;;;5011233;28;20397;-58
2023/09/16 08:14:00;;;;;;;6.15;5.55;;;20.50;65.70;;;;;;5009615;28;20041;-59
2023/09/16 08:16:26;;;;;;;8.10;5.53;;;20.60;65.60;;;;;;5009736;28;20127;-58
2023/09/16 08:18:51;;;;;;;9.25;5.22;;;20.60;65.60;;;;;;5009965;28;20022;-58
2023/09/16 08:21:17;;;;;;;6.50;5.75;;;20.60;65.50;;;;;;5009622;28;20025;-59
2023/09/16 08:23:43;;;;;;;6.13;5.30;;;20.60;65.10;;;;;;5009819;28;20504;-58
2023/09/16 08:26:08;;;;;;;6.78;4.95;;;20.70;64.80;;;;;;5009495;28;20030;-59
2023/09/16 08:28:35;;;;;;;6.88;5.03;;;20.70;64.80;;;;;;5009573;28;20041;-58
2023/09/16 08:31:02;;;;;;;5.53;5.00;;;20.70;64.80;;;;;;5009617;28;20025;-58
2023/09/16 08:33:28;;;;;;;5.82;5.22;;;20.70;64.70;;;;;;5009312;28;20022;-59
2023/09/16 08:35:54;;;;;;;6.20;5.57;;;20.70;64.50;;;;;;5009744;28;20026;-58
2023/09/16 08:38:19;;;;;;;5.50;4.95;;;20.70;64.40;;;;;;5009435;28;20580;-59
2023/09/16 08:40:51;;;;;;;6.65;5.10;;;20.70;64.20;;;;;;5009366;28;20081;-58
2023/09/16 08:43:34;;;;;;;5.63;4.95;;;20.70;64.10;;;;;;5010234;28;20032;-59
2023/09/16 08:46:03;;;;;;;5.30;4.80;;;20.70;64.20;;;;;;5011251;28;20025;-59
2023/09/16 08:48:34;;;;;;;6.32;4.70;;;20.60;64.00;;;;;;5011073;28;20398;-59
2023/09/16 08:51:02;;;;;;;5.05;4.30;;;20.70;63.70;;;;;;5011306;28;20080;-59
2023/09/16 08:53:30;;;;;;;4.90;4.30;;;20.60;63.80;;;;;;5011173;28;20113;-59
2023/09/16 08:55:57;;;;;;;5.70;5.10;;;20.70;63.80;;;;;;5010859;28;20034;-59
2023/09/16 08:58:24;;;;;;;10.05;4.95;;;20.70;63.60;;;;;;5010723;28;20025;-58
2023/09/16 09:00:49;;;;;;;7.47;4.50;;;20.70;63.10;;;;;;5010594;28;20052;-58
2023/09/16 09:03:15;;;;;;;5.78;4.55;;;20.70;63.00;;;;;;5010717;28;20101;-58
2023/09/16 09:05:43;;;;;;;6.32;4.65;;;20.70;62.60;;;;;;5010997;28;20034;-58
2023/09/16 09:08:11;;;;;;;4.85;4.20;;;20.70;62.60;;;;;;5010933;28;20053;-58
2023/09/16 09:10:37;;;;;;;4.80;4.30;;;20.70;62.60;;;;;;5010755;28;20081;-58
2023/09/16 09:13:10;;;;;;;6.07;4.15;;;20.80;62.30;;;;;;5010425;28;20034;-59
2023/09/16 09:15:39;;;;;;;4.68;4.18;;;20.80;62.10;;;;;;5011278;28;20077;-58
2023/09/16 09:18:07;;;;;;;5.82;3.72;;;20.80;62.00;;;;;;5010260;28;20030;-59
2023/09/16 09:20:34;;;;;;;4.40;4.00;;;20.80;61.90;;;;;;5010631;28;20026;-59
2023/09/16 09:23:01;;;;;;;5.30;4.03;;;20.80;61.70;;;;;;4995063;28;20030;-58
2023/09/16 09:25:27;;;;;;;5.18;3.95;;;20.80;61.70;;;;;;5014427;28;20064;-59
2023/09/16 09:27:55;;;;;;;4.93;4.00;;;20.80;61.50;;;;;;5014655;28;20025;-59
2023/09/16 09:30:26;;;;;;;5.65;4.10;;;20.80;61.70;;;;;;5014699;28;20393;-58
2023/09/16 09:32:56;;;;;;;7.68;4.45;;;20.90;61.70;;;;;;5013568;28;20037;-59
2023/09/16 09:35:26;;;;;;;4.30;3.90;;;20.90;61.30;;;;;;5013359;28;20018;-58
2023/09/16 09:37:52;;;;;;;5.72;4.97;;;20.90;60.90;;;;;;5014056;28;20036;-59
2023/09/16 09:40:19;;;;;;;5.95;4.45;;;20.90;61.00;;;;;;5014628;28;20335;-59
2023/09/16 09:42:50;;;;;;;8.02;5.93;;;20.90;61.00;;;;;;5014215;28;20018;-59
2023/09/16 09:45:21;;;;;;;5.28;4.45;;;20.90;61.10;;;;;;5014428;28;20030;-58
2023/09/16 09:47:49;;;;;;;4.10;3.58;;;20.90;61.20;;;;;;5014120;28;20054;-59
2023/09/16 09:50:17;;;;;;;5.10;3.75;;;20.90;61.20;;;;;;5014382;28;20115;-59
2023/09/16 09:52:47;;;;;;;6.65;3.92;;;20.90;61.00;;;;;;5013938;28;20085;-59
2023/09/16 09:55:15;;;;;;;5.13;3.75;;;20.90;60.60;;;;;;5013933;28;20450;-59
2023/09/16 09:57:45;;;;;;;4.68;4.18;;;20.90;60.40;;;;;;5014175;28;20022;-59
2023/09/16 10:00:13;;;;;;;4.10;3.63;;;20.90;60.30;;;;;;5012977;28;20018;-59
2023/09/16 10:02:40;;;;;;;4.57;4.05;;;20.90;60.20;;;;;;5012417;28;20022;-59
2023/09/16 10:05:06;;;;;;;4.28;3.60;;;20.90;60.50;;;;;;5013697;28;20104;-59
2023/09/16 10:07:32;;;;;;;4.80;3.97;;;20.90;60.50;;;;;;5013836;28;20121;-58
2023/09/16 10:09:58;;;;;;;4.45;4.05;;;20.90;60.60;;;;;;5013055;28;20084;-59
2023/09/16 10:12:24;;;;;;;4.05;3.70;;;20.90;60.50;;;;;;5011623;28;20159;-59
2023/09/16 10:14:53;;;;;;;4.95;3.78;;;20.90;60.20;;;;;;5011121;28;20034;-59
2023/09/16 10:17:21;;;;;;;4.30;3.78;;;20.90;59.80;;;;;;5011071;28;20033;-59
2023/09/16 10:19:47;;;;;;;3.83;3.40;;;20.90;59.70;;;;;;5012288;28;20026;-59
2023/09/16 10:22:14;;;;;;;4.40;3.40;;;20.90;59.40;;;;;;5011380;28;20474;-59
2023/09/16 10:24:43;;;;;;;3.88;3.40;;;20.90;59.70;;;;;;5011410;28;20068;-59
2023/09/16 10:27:22;;;;;;;3.55;3.25;;;21.00;59.40;;;;;;5011526;28;20616;-58
2023/09/16 10:29:48;;;;;;;4.70;3.30;;;21.00;59.60;;;;;;5011368;28;20029;-59
2023/09/16 10:32:16;;;;;;;3.55;2.95;;;20.90;59.20;;;;;;5011360;28;20121;-59
2023/09/16 10:34:45;;;;;;;4.10;3.67;;;21.00;59.00;;;;;;5011243;28;20156;-59
2023/09/16 10:37:17;;;;;;;3.97;3.55;;;21.00;59.10;;;;;;5013154;28;20022;-59
2023/09/16 10:39:46;;;;;;;4.43;3.60;;;21.00;59.40;;;;;;5014236;28;20029;-58
2023/09/16 10:42:16;;;;;;;4.07;3.40;;;21.00;59.00;;;;;;5013854;28;20033;-59
2023/09/16 10:44:42;;;;;;;3.30;2.97;;;21.00;58.60;;;;;;5013439;28;20032;-58
2023/09/16 10:47:08;;;;;;;4.18;3.78;;;21.00;58.60;;;;;;5013440;28;20030;-58
2023/09/16 10:49:34;;;;;;;4.72;3.30;;;21.00;58.40;;;;;;5013634;28;20034;-59
2023/09/16 10:52:03;;;;;;;4.80;3.55;;;21.00;58.20;;;;;;5013362;28;20036;-59
2023/09/16 10:54:43;;;;;;;4.75;3.47;;;21.10;58.10;;;;;;4995906;28;20026;-59
2023/09/16 10:57:20;;;;;;;4.47;3.22;;;21.10;58.20;;;;;;5013642;28;20064;-59
2023/09/16 10:59:50;;;;;;;4.03;3.60;;;21.00;58.00;;;;;;5013200;28;20028;-59
2023/09/16 11:02:31;;;;;;;5.70;3.47;;;21.00;58.10;;;;;;5013263;28;20034;-59
2023/09/16 11:04:57;;;;;;;4.72;3.10;;;21.10;58.20;;;;;;5013386;28;20033;-59
2023/09/16 11:07:24;;;;;;;3.47;3.17;;;21.00;58.00;;;;;;5013100;28;20422;-59
2023/09/16 11:09:51;;;;;;;4.57;2.95;;;21.10;57.60;;;;;;5013123;28;20485;-59
2023/09/16 11:12:19;;;;;;;4.55;3.40;;;21.10;57.60;;;;;;5013179;28;20026;-59
2023/09/16 11:14:44;;;;;;;4.13;2.95;;;21.10;57.50;;;;;;5012838;28;20030;-59
2023/09/16 11:17:16;;;;;;;5.70;3.63;;;21.10;57.30;;;;;;5013091;28;20046;-59
2023/09/16 11:19:42;;;;;;;3.55;3.25;;;21.10;56.80;;;;;;4995466;28;20423;-59
2023/09/16 11:22:09;;;;;;;3.67;3.10;;;21.10;57.10;;;;;;5012738;28;20098;-59
2023/09/16 11:24:36;;;;;;;4.43;3.40;;;21.10;57.30;;;;;;5012947;28;20052;-59
2023/09/16 11:27:02;;;;;;;4.07;3.53;;;21.10;57.30;;;;;;5012939;28;20080;-58
2023/09/16 11:29:29;;;;;;;3.88;3.28;;;21.10;57.40;;;;;;5013010;28;20081;-59
2023/09/16 11:31:55;;;;;;;4.45;3.25;;;21.10;57.50;;;;;;5012575;28;20431;-59
2023/09/16 11:34:27;;;;;;;4.50;3.65;;;21.10;57.50;;;;;;5011255;28;20053;-59
2023/09/16 11:37:01;;;;;;;4.15;3.65;;;21.10;57.50;;;;;;5011066;28;20022;-58
2023/09/16 11:39:39;;;;;;;4.00;3.38;;;21.10;57.40;;;;;;5011330;28;20753;-59
2023/09/16 11:42:05;;;;;;;4.43;3.30;;;21.10;57.60;;;;;;4994260;28;20438;-59
2023/09/16 11:44:31;;;;;;;4.95;3.97;;;21.10;57.60;;;;;;5011684;28;20065;-59
2023/09/16 11:46:58;;;;;;;6.65;5.30;;;21.10;57.20;;;;;;5011785;28;20034;-59
2023/09/16 11:49:24;;;;;;;5.40;4.05;;;21.10;57.20;;;;;;5012005;28;20033;-59
2023/09/16 11:51:51;;;;;;;4.13;3.30;;;21.10;57.20;;;;;;5010693;28;20666;-57
2023/09/16 11:54:17;;;;;;;6.40;4.28;;;21.10;57.30;;;;;;5010595;28;20065;-59
2023/09/16 11:56:43;;;;;;;6.43;4.65;;;21.10;57.30;;;;;;5010379;28;20083;-59
2023/09/16 11:59:11;;;;;;;4.20;3.75;;;21.10;57.40;;;;;;5010513;28;20522;-59
2023/09/16 12:01:40;;;;;;;5.70;3.50;;;21.10;57.20;;;;;;5010558;28;20461;-59
2023/09/16 12:04:09;;;;;;;4.32;3.72;;;21.10;57.00;;;;;;5010571;28;20018;-59
2023/09/16 12:06:35;;;;;;;4.03;3.63;;;21.10;57.00;;;;;;5012407;28;20025;-58
2023/09/16 12:09:03;;;;;;;4.03;3.40;;;21.10;57.00;;;;;;5012271;28;20208;-59
2023/09/16 12:11:31;;;;;;;4.00;3.38;;;21.10;57.00;;;;;;5011954;28;20037;-58
2023/09/16 12:13:58;;;;;;;3.65;3.30;;;21.10;57.10;;;;;;5012020;28;20081;-59
2023/09/16 12:16:24;;;;;;;4.00;3.45;;;21.10;57.00;;;;;;5012122;28;20029;-59
2023/09/16 12:18:50;;;;;;;4.75;4.05;;;21.10;56.90;;;;;;5011777;28;20018;-59
2023/09/16 12:21:16;;;;;;;4.07;3.45;;;21.10;57.00;;;;;;5011917;28;20029;-59
2023/09/16 12:23:42;;;;;;;4.63;3.88;;;21.10;56.90;;;;;;5011954;28;20026;-59
2023/09/16 12:26:12;;;;;;;4.32;3.58;;;21.10;56.70;;;;;;5012100;28;20033;-59
2023/09/16 12:28:39;;;;;;;4.30;3.70;;;21.10;56.60;;;;;;5011757;28;20490;-58
2023/09/16 12:31:09;;;;;;;4.80;3.78;;;21.10;56.80;;;;;;5011885;28;20026;-59
2023/09/16 12:33:44;;;;;;;4.57;3.73;;;21.10;56.80;;;;;;5011272;28;20033;-59
2023/09/16 12:36:15;;;;;;;4.10;3.70;;;21.20;57.00;;;;;;5009887;28;20029;-59
2023/09/16 12:38:40;;;;;;;;;;;21.10;56.80;;;;;;5010790;28;20041;-59
2023/09/16 12:41:06;;;;;;;4.55;3.45;;;21.10;57.30;;;;;;5011141;28;19967;-59